Time;durP1;ratioP1;P1;durP2;ratioP2;P2;SDS_P1;SDS_P2;PMS_P1;PMS_P2;Temp;Humidity;BMP_temperature;BMP_pressure;BME280_temperature;BME280_humidity;BME280_pressure;Samples;Min_cycle;Max_cycle;Signal;HPM_P1;HPM_P2
2023/08/04 00:01:31;;;;;;;11.80;10.80;;;;;;;25.73;60.30;94497.22;5115898;28;20207;-71
2023/08/04 00:03:59;;;;;;;12.13;11.02;;;;;;;25.74;60.63;94493.16;5115850;28;20215;-71
2023/08/04 00:06:29;;;;;;;12.43;11.35;;;;;;;25.71;60.23;94502.56;5116364;28;20224;-71
2023/08/04 00:08:57;;;;;;;12.05;11.05;;;;;;;25.70;60.62;94498.16;5115792;28;20199;-70
2023/08/04 00:11:27;;;;;;;12.05;11.05;;;;;;;25.72;60.62;94497.72;5116005;28;20191;-71
2023/08/04 00:13:56;;;;;;;11.32;10.43;;;;;;;25.72;60.50;94494.88;5116319;28;20237;-71
2023/08/04 00:16:24;;;;;;;11.77;10.70;;;;;;;25.67;60.68;94494.25;5115925;28;20196;-71
2023/08/04 00:18:53;;;;;;;12.02;11.07;;;;;;;25.59;60.92;94498.59;5115590;28;20184;-71
2023/08/04 00:21:21;;;;;;;11.77;10.85;;;;;;;25.57;60.60;94500.31;5115567;28;20204;-71
2023/08/04 00:23:49;;;;;;;12.25;11.18;;;;;;;25.55;60.97;94503.59;5116301;28;20184;-71
2023/08/04 00:26:17;;;;;;;11.85;10.85;;;;;;;25.53;60.60;94503.28;5115284;28;20235;-71
2023/08/04 00:28:47;;;;;;;11.85;10.95;;;;;;;25.52;60.57;94501.69;5115977;28;20187;-71
2023/08/04 00:31:14;;;;;;;11.75;10.80;;;;;;;25.51;60.72;94499.34;5115471;28;20260;-71
2023/08/04 00:33:41;;;;;;;11.98;10.98;;;;;;;25.51;60.70;94505.00;5115494;28;20276;-71
2023/08/04 00:36:12;;;;;;;12.45;11.18;;;;;;;25.46;60.93;94506.38;5115679;28;20591;-71
2023/08/04 00:38:42;;;;;;;11.95;10.85;;;;;;;25.42;60.80;94505.75;5115492;28;20196;-71
2023/08/04 00:41:10;;;;;;;11.43;10.50;;;;;;;25.43;61.06;94505.28;5115529;28;20194;-71
2023/08/04 00:43:38;;;;;;;11.98;10.98;;;;;;;25.45;61.05;94510.44;5115023;28;20191;-71
2023/08/04 00:46:06;;;;;;;12.13;11.13;;;;;;;25.41;61.15;94506.97;5115137;28;20188;-70
2023/08/04 00:48:35;;;;;;;11.30;10.43;;;;;;;25.39;61.02;94503.84;5115185;28;20207;-70
2023/08/04 00:51:03;;;;;;;11.45;10.55;;;;;;;25.37;61.10;94506.34;5115379;28;20192;-70
2023/08/04 00:53:32;;;;;;;11.57;10.70;;;;;;;25.32;61.34;94513.38;5114879;28;20208;-70
2023/08/04 00:55:59;;;;;;;11.38;10.27;;;;;;;25.30;61.44;94512.25;5115509;28;20195;-70
2023/08/04 00:58:27;;;;;;;11.52;10.63;;;;;;;25.29;61.51;94505.03;5115256;28;20203;-70
2023/08/04 01:00:56;;;;;;;11.95;11.00;;;;;;;25.29;61.37;94510.69;5115096;28;20195;-70
2023/08/04 01:03:25;;;;;;;11.52;10.73;;;;;;;25.23;61.60;94507.66;5114833;28;20206;-70
2023/08/04 01:05:58;;;;;;;11.95;10.85;;;;;;;25.20;62.04;94502.94;5115020;28;20188;-70
2023/08/04 01:08:35;;;;;;;12.23;10.98;;;;;;;25.16;62.00;94500.28;5115392;28;20184;-70
2023/08/04 01:11:05;;;;;;;11.73;10.73;;;;;;;25.12;62.11;94508.06;5114641;28;20206;-70
2023/08/04 01:13:33;;;;;;;11.85;10.85;;;;;;;25.12;61.80;94501.66;5114911;28;20668;-70
2023/08/04 01:16:04;;;;;;;11.98;10.77;;;;;;;25.11;62.13;94500.88;5115532;28;20535;-71
2023/08/04 01:18:32;;;;;;;11.48;10.48;;;;;;;25.07;62.34;94502.22;5115183;28;20570;-71
2023/08/04 01:21:04;;;;;;;12.20;11.15;;;;;;;25.04;61.97;94505.97;5115153;28;20207;-71
2023/08/04 01:23:33;;;;;;;12.05;10.98;;;;;;;25.00;62.19;94503.28;5114767;28;20192;-70
2023/08/04 01:26:02;;;;;;;12.25;11.15;;;;;;;24.97;62.38;94499.34;5114954;28;20231;-70
2023/08/04 01:28:30;;;;;;;12.48;11.23;;;;;;;24.96;62.40;94511.09;5115119;28;20195;-70
2023/08/04 01:31:00;;;;;;;12.00;10.95;;;;;;;24.96;62.39;94503.41;5114963;28;20203;-70
2023/08/04 01:33:29;;;;;;;11.82;10.77;;;;;;;24.94;62.08;94505.91;5115187;28;20199;-70
2023/08/04 01:36:00;;;;;;;11.15;10.25;;;;;;;24.92;62.37;94502.75;5114862;28;20199;-71
2023/08/04 01:38:31;;;;;;;11.32;10.43;;;;;;;24.89;62.49;94505.72;5114510;28;20203;-71
2023/08/04 01:41:02;;;;;;;11.82;10.77;;;;;;;24.84;62.57;94501.47;5114684;28;20200;-70
2023/08/04 01:43:29;;;;;;;11.20;10.30;;;;;;;24.81;62.56;94508.03;5114517;28;20196;-70
2023/08/04 01:45:57;;;;;;;11.77;10.77;;;;;;;24.80;62.45;94506.44;5114528;28;20191;-71
2023/08/04 01:48:26;;;;;;;11.43;10.43;;;;;;;24.81;62.54;94508.03;5114159;28;20215;-71
2023/08/04 01:50:57;;;;;;;12.43;11.43;;;;;;;24.79;62.39;94506.91;5114987;28;20260;-71
2023/08/04 01:53:25;;;;;;;11.27;10.38;;;;;;;24.78;63.02;94520.22;5114557;28;20207;-71
2023/08/04 01:55:57;;;;;;;12.45;11.32;;;;;;;24.78;62.80;94510.97;5114129;28;20192;-70
2023/08/04 01:58:27;;;;;;;11.82;10.73;;;;;;;24.77;62.65;94510.19;5114764;28;20196;-72
2023/08/04 02:00:56;;;;;;;11.85;10.73;;;;;;;24.76;62.87;94517.06;5114727;28;20199;-70
2023/08/04 02:03:26;;;;;;;11.95;10.88;;;;;;;24.72;62.86;94519.22;5115338;28;20188;-70
2023/08/04 02:05:55;;;;;;;11.85;10.88;;;;;;;24.68;62.96;94521.38;5114768;28;20212;-70
2023/08/04 02:08:23;;;;;;;12.68;11.63;;;;;;;24.62;63.17;94523.22;5114320;28;20222;-69
2023/08/04 02:10:51;;;;;;;11.88;10.85;;;;;;;24.59;63.12;94524.16;5114113;28;20211;-70
2023/08/04 02:13:21;;;;;;;11.73;10.73;;;;;;;24.58;63.31;94520.50;5114174;28;20199;-70
2023/08/04 02:15:49;;;;;;;11.85;10.85;;;;;;;24.57;63.33;94529.44;5114204;28;20192;-69
2023/08/04 02:18:18;;;;;;;11.93;10.85;;;;;;;24.58;63.23;94528.97;5114396;28;20192;-70
2023/08/04 02:20:46;;;;;;;12.35;11.20;;;;;;;24.55;63.46;94534.72;5114142;28;20611;-71
2023/08/04 02:23:14;;;;;;;11.77;10.77;;;;;;;24.50;63.62;94536.09;5118118;28;20634;-71
2023/08/04 02:25:42;;;;;;;11.80;10.80;;;;;;;24.48;63.98;94536.59;5117726;28;20666;-70
2023/08/04 02:28:13;;;;;;;12.77;11.52;;;;;;;24.44;63.82;94535.91;5117795;28;20224;-70
2023/08/04 02:30:46;;;;;;;12.90;11.70;;;;;;;24.42;63.98;94541.22;5117984;28;20195;-70
2023/08/04 02:33:14;;;;;;;13.18;11.98;;;;;;;24.41;63.97;94539.66;5117768;28;20222;-70
2023/08/04 02:35:40;;;;;;;13.45;12.30;;;;;;;24.41;64.12;94544.50;5117722;28;20204;-70
2023/08/04 02:38:09;;;;;;;13.40;12.30;;;;;;;24.38;64.27;94542.56;5118341;28;20207;-70
2023/08/04 02:40:37;;;;;;;16.55;14.95;;;;;;;24.31;64.19;94551.25;5117570;28;20191;-70
2023/08/04 02:43:08;;;;;;;14.25;12.95;;;;;;;24.28;64.66;94550.13;5117453;28;20187;-70
2023/08/04 02:45:36;;;;;;;13.55;12.27;;;;;;;24.25;64.36;94542.59;5117389;28;20248;-69
2023/08/04 02:48:06;;;;;;;13.90;12.55;;;;;;;24.27;64.46;94538.06;5118011;28;20287;-70
2023/08/04 02:50:34;;;;;;;13.45;12.25;;;;;;;24.26;64.48;94544.19;5117418;28;20196;-70
2023/08/04 02:53:01;;;;;;;12.75;11.70;;;;;;;24.23;64.49;94543.03;5117783;28;20199;-69
2023/08/04 02:55:33;;;;;;;12.23;11.23;;;;;;;24.19;64.54;94544.41;5117451;28;20215;-69
2023/08/04 02:58:01;;;;;;;12.90;11.60;;;;;;;24.17;64.65;94536.41;5117213;28;20218;-69
2023/08/04 03:00:31;;;;;;;12.10;10.93;;;;;;;24.17;65.04;94541.25;5117772;28;20214;-70
2023/08/04 03:03:00;;;;;;;12.65;11.52;;;;;;;24.17;64.48;94546.88;5117505;28;20206;-73
2023/08/04 03:05:29;;;;;;;13.23;11.93;;;;;;;24.14;64.58;94544.97;5117246;28;20538;-73
2023/08/04 03:07:57;;;;;;;12.85;11.73;;;;;;;24.13;64.63;94549.03;5117167;28;20207;-74
2023/08/04 03:10:27;;;;;;;13.13;11.75;;;;;;;24.09;65.03;94554.00;5117568;28;20192;-73
2023/08/04 03:12:55;;;;;;;12.68;11.55;;;;;;;24.06;64.87;94547.25;5117516;28;20288;-73
2023/08/04 03:15:23;;;;;;;13.13;11.82;;;;;;;24.03;64.90;94551.75;5116634;28;20203;-73
2023/08/04 03:17:51;;;;;;;14.18;12.77;;;;;;;24.03;64.84;94545.34;5117253;28;20499;-73
2023/08/04 03:20:19;;;;;;;13.48;12.27;;;;;;;24.03;64.69;94545.34;5116596;28;20207;-72
2023/08/04 03:22:48;;;;;;;13.68;12.18;;;;;;;24.05;65.16;94544.91;5116966;28;20184;-72
2023/08/04 03:25:17;;;;;;;13.20;11.90;;;;;;;24.03;65.29;94548.16;5116667;28;20223;-72
2023/08/04 03:27:45;;;;;;;13.27;12.07;;;;;;;24.02;65.17;94547.38;5116775;28;20212;-73
2023/08/04 03:30:16;;;;;;;12.70;11.60;;;;;;;23.99;65.04;94544.66;5116904;28;20196;-73
2023/08/04 03:32:44;;;;;;;12.70;11.40;;;;;;;23.98;64.98;94546.69;5116544;28;20199;-73
2023/08/04 03:35:12;;;;;;;12.93;11.73;;;;;;;24.00;64.85;94551.88;5116879;28;20192;-73
2023/08/04 03:37:43;;;;;;;13.07;11.88;;;;;;;24.04;64.76;94546.94;5116559;28;20215;-73
2023/08/04 03:40:15;;;;;;;12.70;11.57;;;;;;;24.00;64.21;94552.69;5116497;28;20214;-73
2023/08/04 03:42:43;;;;;;;13.02;11.70;;;;;;;24.02;64.28;94555.81;5116866;28;20203;-73
2023/08/04 03:45:14;;;;;;;13.32;12.05;;;;;;;24.02;64.52;94555.81;5116483;28;20207;-73
2023/08/04 03:47:41;;;;;;;13.43;12.20;;;;;;;24.03;64.44;94551.75;5116188;28;20282;-74
2023/08/04 03:50:16;;;;;;;13.23;11.65;;;;;;;24.03;64.44;94563.00;5116348;28;20191;-73
2023/08/04 03:52:47;;;;;;;14.15;12.75;;;;;;;24.02;64.66;94558.63;5116470;28;20199;-73
2023/08/04 03:55:16;;;;;;;13.60;12.35;;;;;;;24.02;64.66;94567.09;5116123;28;20286;-71
2023/08/04 03:57:44;;;;;;;14.38;12.88;;;;;;;24.00;64.71;94560.31;5116780;28;20190;-70
2023/08/04 04:00:15;;;;;;;13.40;12.00;;;;;;;24.03;64.66;94563.00;5116485;28;20188;-74
2023/08/04 04:02:47;;;;;;;13.13;12.02;;;;;;;24.02;64.99;94567.09;5117549;28;20210;-72
2023/08/04 04:05:15;;;;;;;13.73;12.32;;;;;;;24.00;65.06;94560.31;5117172;28;20184;-72
2023/08/04 04:07:42;;;;;;;12.55;11.40;;;;;;;24.03;65.07;94565.84;5116856;28;20212;-73
2023/08/04 04:10:10;;;;;;;14.60;13.18;;;;;;;24.03;64.95;94557.38;5117140;28;20218;-73
2023/08/04 04:12:40;;;;;;;14.07;12.40;;;;;;;24.06;65.13;94560.53;5116865;28;20245;-72
2023/08/04 04:15:08;;;;;;;14.63;13.13;;;;;;;24.07;65.33;94568.53;5116898;28;20248;-72
2023/08/04 04:17:36;;;;;;;14.13;12.73;;;;;;;24.12;65.41;94558.75;5115689;27;20204;-73
2023/08/04 04:20:06;;;;;;;14.10;12.70;;;;;;;24.11;65.47;94565.59;5115804;28;20192;-72
2023/08/04 04:22:34;;;;;;;13.43;12.23;;;;;;;24.13;65.31;94563.13;5116662;28;20180;-72
2023/08/04 04:25:05;;;;;;;15.10;13.45;;;;;;;24.15;65.50;94569.09;5115118;28;20228;-73
2023/08/04 04:27:34;;;;;;;15.27;13.68;;;;;;;24.20;65.46;94568.53;5116439;28;20211;-73
2023/08/04 04:30:04;;;;;;;16.17;14.43;;;;;;;24.21;65.50;94565.25;5116069;28;20204;-72
2023/08/04 04:32:36;;;;;;;16.65;14.90;;;;;;;24.23;65.71;94562.78;5115098;28;20222;-72
2023/08/04 04:35:04;;;;;;;15.07;13.52;;;;;;;24.27;65.47;94574.72;5115613;28;20206;-72
2023/08/04 04:37:35;;;;;;;15.05;13.50;;;;;;;24.31;64.63;94571.75;5115361;28;20204;-73
2023/08/04 04:40:05;;;;;;;16.30;14.60;;;;;;;24.34;64.31;94570.06;5115811;28;20202;-72
2023/08/04 04:42:34;;;;;;;13.98;12.68;;;;;;;24.45;63.43;94567.72;5116405;28;20258;-72
2023/08/04 04:45:04;;;;;;;14.45;13.02;;;;;;;24.59;63.52;94581.31;5114953;28;20180;-72
2023/08/04 04:47:31;;;;;;;13.38;12.07;;;;;;;24.60;63.45;94568.78;5115161;28;20212;-72
2023/08/04 04:50:02;;;;;;;13.40;12.07;;;;;;;24.77;62.34;94575.03;5115046;28;20203;-72
2023/08/04 04:52:35;;;;;;;13.95;12.48;;;;;;;24.85;62.05;94576.34;5115369;28;20195;-72
2023/08/04 04:55:05;;;;;;;14.77;13.38;;;;;;;24.97;61.58;94578.31;5115326;28;20187;-72
2023/08/04 04:57:37;;;;;;;13.18;11.98;;;;;;;25.06;61.50;94590.94;5114805;28;20639;-72
2023/08/04 05:00:17;;;;;;;14.02;12.60;;;;;;;25.07;62.15;94576.38;5115001;28;20194;-72
2023/08/04 05:02:44;;;;;;;13.95;12.15;;;;;;;24.96;62.18;94587.25;5115413;28;20199;-72
2023/08/04 05:05:12;;;;;;;14.80;13.05;;;;;;;25.02;61.94;94584.63;5114776;28;20204;-73
2023/08/04 05:07:40;;;;;;;14.18;12.80;;;;;;;24.98;62.09;94582.75;5115013;28;20223;-73
2023/08/04 05:10:09;;;;;;;13.93;12.63;;;;;;;24.89;63.21;94593.94;5114635;28;20202;-73
2023/08/04 05:12:39;;;;;;;14.15;12.95;;;;;;;24.87;62.76;94592.81;5115146;28;20196;-73
2023/08/04 05:15:10;;;;;;;12.88;11.77;;;;;;;25.04;61.40;94593.41;5115270;28;20264;-73
2023/08/04 05:17:40;;;;;;;13.85;12.57;;;;;;;25.17;61.77;94589.31;5114626;28;20190;-73
2023/08/04 05:20:11;;;;;;;13.65;12.45;;;;;;;25.08;62.29;94592.03;5114551;28;20192;-73
2023/08/04 05:22:43;;;;;;;13.85;12.57;;;;;;;25.04;62.53;94588.56;5114906;28;20188;-73
2023/08/04 05:25:10;;;;;;;13.90;12.68;;;;;;;25.11;61.14;94587.56;5114653;28;20299;-73
2023/08/04 05:27:38;;;;;;;15.18;13.73;;;;;;;25.16;61.37;94590.59;5114413;28;20196;-73
2023/08/04 05:30:13;;;;;;;13.45;12.27;;;;;;;25.18;60.69;94582.44;5115029;28;20245;-72
2023/08/04 05:32:41;;;;;;;14.88;13.35;;;;;;;25.39;60.37;94580.84;5114872;28;20195;-72
2023/08/04 05:35:10;;;;;;;16.92;13.57;;;;;;;25.52;59.67;94585.59;5114720;28;20184;-71
2023/08/04 05:37:39;;;;;;;14.52;13.15;;;;;;;25.55;59.74;94577.00;5114781;28;20200;-71
2023/08/04 05:40:09;;;;;;;15.25;13.75;;;;;;;25.51;59.84;94578.41;5114822;28;20210;-73
2023/08/04 05:42:36;;;;;;;14.98;13.48;;;;;;;25.58;59.67;94584.56;5115151;28;20203;-71
2023/08/04 05:45:07;;;;;;;16.08;13.82;;;;;;;25.64;59.53;94587.56;5114534;28;20196;-71
2023/08/04 05:47:36;;;;;;;14.73;13.07;;;;;;;25.71;59.11;94584.47;5114544;28;20196;-72
2023/08/04 05:50:05;;;;;;;17.48;13.25;;;;;;;25.68;59.45;94586.19;5114688;28;20195;-71
2023/08/04 05:52:36;;;;;;;16.42;14.73;;;;;;;25.54;59.30;94591.59;5114196;28;20635;-71
2023/08/04 05:55:06;;;;;;;17.00;13.77;;;;;;;25.57;59.22;94585.81;5114280;28;20196;-71
2023/08/04 05:57:34;;;;;;;15.98;13.98;;;;;;;25.67;59.01;94590.25;5117394;28;20607;-71
2023/08/04 06:00:01;;;;;;;16.58;13.70;;;;;;;25.67;58.96;94587.44;5118498;28;20204;-71
2023/08/04 06:02:29;;;;;;;14.82;13.27;;;;;;;25.61;59.90;94591.31;5118658;28;20202;-72
2023/08/04 06:04:57;;;;;;;14.05;12.65;;;;;;;25.66;59.33;94593.53;5118439;28;20211;-71
2023/08/04 06:07:24;;;;;;;14.63;13.40;;;;;;;25.71;59.00;94592.94;5119193;28;20199;-74
2023/08/04 06:09:55;;;;;;;15.98;14.27;;;;;;;25.79;58.58;94593.47;5118917;28;20196;-73
2023/08/04 06:12:23;;;;;;;17.02;14.63;;;;;;;25.84;58.47;94590.03;5118483;28;20199;-73
2023/08/04 06:14:53;;;;;;;17.33;14.85;;;;;;;25.84;59.07;94588.00;5118204;28;20611;-73
2023/08/04 06:17:23;;;;;;;15.38;13.70;;;;;;;25.86;58.46;94590.38;5118578;28;20253;-74
2023/08/04 06:19:55;;;;;;;15.40;13.80;;;;;;;25.76;58.13;94595.16;5118311;28;20192;-73
2023/08/04 06:22:30;;;;;;;15.98;14.27;;;;;;;25.77;59.37;94593.91;5117844;28;20191;-73
2023/08/04 06:24:58;;;;;;;15.38;13.95;;;;;;;25.75;60.31;94596.41;5118171;28;20558;-73
2023/08/04 06:27:26;;;;;;;16.08;14.40;;;;;;;25.67;61.62;94598.72;5118013;28;20596;-73
2023/08/04 06:29:58;;;;;;;14.95;13.45;;;;;;;25.65;60.25;94595.56;5117842;28;20212;-73
2023/08/04 06:32:27;;;;;;;14.95;13.50;;;;;;;25.62;60.23;94590.84;5117895;28;20196;-73
2023/08/04 06:34:55;;;;;;;15.50;14.10;;;;;;;25.58;60.06;94595.06;5117899;28;20213;-73
2023/08/04 06:37:22;;;;;;;15.00;13.50;;;;;;;25.49;59.94;94587.34;5117577;28;20202;-73
2023/08/04 06:39:55;;;;;;;16.90;15.35;;;;;;;25.50;59.53;94594.56;5117864;28;20203;-73
2023/08/04 06:42:26;;;;;;;15.88;14.38;;;;;;;25.45;60.39;94586.66;5117797;28;20204;-73
2023/08/04 06:44:54;;;;;;;15.90;14.40;;;;;;;25.45;60.21;94581.00;5117747;28;20264;-74
2023/08/04 06:47:22;;;;;;;16.50;14.90;;;;;;;25.38;59.55;94584.91;5117390;28;20200;-73
2023/08/04 06:49:52;;;;;;;16.13;14.50;;;;;;;25.37;60.26;94579.72;5117447;28;20546;-74
2023/08/04 06:52:20;;;;;;;15.80;14.40;;;;;;;25.32;60.85;94580.34;5117223;28;20218;-73
2023/08/04 06:54:48;;;;;;;15.68;14.25;;;;;;;25.30;61.50;94577.16;5117654;28;20202;-76
2023/08/04 06:57:21;;;;;;;17.52;15.82;;;;;;;25.28;60.94;94579.69;5117095;28;20202;-73
2023/08/04 06:59:50;;;;;;;16.95;15.23;;;;;;;25.28;60.95;94582.50;5117078;28;20205;-73
2023/08/04 07:02:17;;;;;;;15.00;13.55;;;;;;;25.31;61.48;94582.38;5117921;28;20195;-73
2023/08/04 07:04:45;;;;;;;16.00;14.57;;;;;;;25.38;60.52;94581.28;5117233;28;20204;-73
2023/08/04 07:07:12;;;;;;;14.60;13.20;;;;;;;25.40;61.03;94575.97;5116821;28;20207;-73
2023/08/04 07:09:43;;;;;;;15.50;14.00;;;;;;;25.45;60.44;94581.84;5117060;28;20219;-73
2023/08/04 07:12:10;;;;;;;15.20;13.82;;;;;;;25.52;59.97;94568.66;5116971;28;20196;-73
2023/08/04 07:14:43;;;;;;;14.65;13.25;;;;;;;25.60;59.62;94575.59;5117291;28;20188;-73
2023/08/04 07:17:13;;;;;;;14.63;13.43;;;;;;;25.67;59.25;94578.97;5117683;28;20553;-73
2023/08/04 07:19:41;;;;;;;13.95;12.75;;;;;;;25.71;58.93;94576.00;5116780;28;20215;-73
2023/08/04 07:22:09;;;;;;;15.20;13.90;;;;;;;25.76;58.72;94574.59;5117487;28;20192;-73
2023/08/04 07:24:37;;;;;;;14.60;13.40;;;;;;;25.82;58.01;94581.25;5116903;28;20199;-73
2023/08/04 07:27:06;;;;;;;14.30;12.90;;;;;;;25.86;58.05;94581.91;5116963;28;20208;-73
2023/08/04 07:29:34;;;;;;;14.15;13.00;;;;;;;25.87;57.94;94575.78;5117576;27;20219;-73
2023/08/04 07:32:07;;;;;;;14.23;13.02;;;;;;;25.90;57.85;94576.88;5117453;28;20202;-73
2023/08/04 07:34:35;;;;;;;15.15;13.77;;;;;;;25.93;57.69;94571.09;5116587;28;20306;-74
2023/08/04 07:37:03;;;;;;;14.70;13.27;;;;;;;26.01;57.75;94577.25;5116292;28;20196;-74
2023/08/04 07:39:34;;;;;;;13.70;12.50;;;;;;;26.04;57.79;94569.88;5116557;28;20195;-73
2023/08/04 07:42:04;;;;;;;14.45;13.07;;;;;;;26.06;57.90;94570.19;5116383;28;20207;-74
2023/08/04 07:44:34;;;;;;;15.45;14.00;;;;;;;26.09;57.32;94570.03;5117110;28;20206;-74
2023/08/04 07:47:03;;;;;;;14.30;12.85;;;;;;;26.13;57.38;94570.69;5116545;28;20214;-73
2023/08/04 07:49:34;;;;;;;14.07;12.80;;;;;;;26.20;57.40;94574.47;5116213;28;20234;-73
2023/08/04 07:52:04;;;;;;;15.00;13.50;;;;;;;26.21;57.33;94571.16;5116398;28;20209;-74
2023/08/04 07:54:31;;;;;;;15.73;14.20;;;;;;;26.29;56.77;94571.66;5116141;28;20206;-73
2023/08/04 07:57:03;;;;;;;14.57;13.25;;;;;;;26.34;56.53;94571.06;5116209;28;20188;-73
2023/08/04 07:59:32;;;;;;;15.32;13.80;;;;;;;26.34;56.55;94566.19;5115824;28;20192;-74
2023/08/04 08:02:03;;;;;;;15.70;14.35;;;;;;;26.34;57.03;94568.22;5116485;28;20192;-73
2023/08/04 08:04:38;;;;;;;16.38;14.77;;;;;;;26.36;56.90;94566.50;5116324;28;20218;-73
2023/08/04 08:07:05;;;;;;;15.98;14.35;;;;;;;26.39;57.00;94562.72;5116118;28;20248;-73
2023/08/04 08:09:36;;;;;;;15.65;14.35;;;;;;;26.47;56.44;94565.28;5115604;28;20689;-73
2023/08/04 08:12:07;;;;;;;15.52;14.13;;;;;;;26.59;55.55;94564.38;5116543;28;20192;-73
2023/08/04 08:14:37;;;;;;;14.32;13.02;;;;;;;26.63;54.74;94562.94;5116195;28;20216;-73
2023/08/04 08:17:07;;;;;;;14.93;13.43;;;;;;;26.65;54.99;94562.47;5115698;28;20188;-73
2023/08/04 08:19:36;;;;;;;13.95;12.75;;;;;;;26.72;54.89;94553.69;5115769;28;20191;-74
2023/08/04 08:22:09;;;;;;;15.68;14.18;;;;;;;26.78;54.81;94551.81;5116304;28;20206;-74
2023/08/04 08:24:38;;;;;;;15.25;13.93;;;;;;;26.78;55.27;94554.63;5115227;28;20282;-73
2023/08/04 08:27:08;;;;;;;14.10;12.90;;;;;;;26.88;54.66;94563.91;5115550;28;20628;-73
2023/08/04 08:29:40;;;;;;;14.63;12.80;;;;;;;27.04;53.02;94554.31;5115205;28;20285;-73
2023/08/04 08:32:08;;;;;;;12.88;11.88;;;;;;;27.14;53.28;94555.13;5116530;28;20195;-73
2023/08/04 08:34:38;;;;;;;14.45;13.23;;;;;;;27.20;53.11;94556.84;5115522;28;20187;-73
2023/08/04 08:37:08;;;;;;;14.82;13.38;;;;;;;27.28;52.60;94552.41;5115114;28;20698;-73
2023/08/04 08:39:37;;;;;;;14.35;13.05;;;;;;;27.34;53.19;94546.88;5115717;28;20207;-73
2023/08/04 08:42:06;;;;;;;14.52;13.25;;;;;;;27.39;52.11;94556.81;5116024;28;20559;-73
2023/08/04 08:44:37;;;;;;;14.32;13.02;;;;;;;27.44;52.07;94548.44;5116346;28;20183;-73
2023/08/04 08:47:05;;;;;;;14.32;13.02;;;;;;;27.40;52.34;94539.34;5116265;28;20182;-73
2023/08/04 08:49:42;;;;;;;15.60;14.23;;;;;;;27.41;53.09;94540.13;5116081;28;20223;-73
2023/08/04 08:52:12;;;;;;;12.88;11.68;;;;;;;27.52;52.61;94534.72;5115424;28;20222;-73
2023/08/04 08:54:40;;;;;;;12.48;11.43;;;;;;;27.62;51.67;94529.84;5116122;28;20198;-73
2023/08/04 08:57:11;;;;;;;12.07;11.02;;;;;;;27.76;51.47;94527.13;5115233;28;20210;-74
2023/08/04 08:59:40;;;;;;;12.57;11.55;;;;;;;27.87;50.55;94526.63;5115873;28;20183;-73
2023/08/04 09:02:08;;;;;;;11.75;10.82;;;;;;;28.10;49.87;94525.06;5115704;28;20642;-73
2023/08/04 09:04:38;;;;;;;12.32;11.00;;;;;;;28.26;49.38;94535.22;5114825;28;20603;-74
2023/08/04 09:07:07;;;;;;;11.40;10.60;;;;;;;28.35;49.15;94517.38;5115042;28;20188;-73
2023/08/04 09:09:36;;;;;;;11.27;10.30;;;;;;;28.36;49.09;94527.44;5114840;28;20234;-74
2023/08/04 09:12:07;;;;;;;11.93;10.93;;;;;;;28.31;48.73;94511.88;5114878;28;20211;-73
2023/08/04 09:14:48;;;;;;;11.98;10.88;;;;;;;28.20;50.08;94520.91;5115560;28;20199;-73
2023/08/04 09:17:31;;;;;;;11.32;10.23;;;;;;;28.28;49.85;94513.63;5115800;28;20202;-73
2023/08/04 09:19:59;;;;;;;11.57;10.57;;;;;;;28.36;49.83;94511.22;5113447;28;20218;-73
2023/08/04 09:22:31;;;;;;;11.15;10.35;;;;;;;28.71;48.17;94507.84;5115475;28;20584;-70
2023/08/04 09:25:04;;;;;;;11.32;10.38;;;;;;;29.11;47.04;94509.41;5115570;28;20311;-70
2023/08/04 09:27:37;;;;;;;11.63;10.63;;;;;;;29.43;46.28;94508.44;5114404;28;20203;-70
2023/08/04 09:30:08;;;;;;;11.43;10.52;;;;;;;29.49;45.98;94512.16;5116018;28;20246;-70
2023/08/04 09:32:43;;;;;;;11.32;10.27;;;;;;;29.47;47.41;94506.19;5104271;28;20199;-70
2023/08/04 09:35:13;;;;;;;17.00;11.30;;;;;;;29.35;47.03;94503.66;5121676;28;20275;-70
2023/08/04 09:37:45;;;;;;;11.07;10.18;;;;;;;29.43;46.74;94497.06;5121582;28;20197;-70
2023/08/04 09:40:19;;;;;;;11.00;10.10;;;;;;;29.67;45.68;94496.22;5122630;27;20214;-70
2023/08/04 09:42:48;;;;;;;11.32;10.43;;;;;;;29.81;45.98;94494.59;5122340;27;20199;-70
2023/08/04 09:45:19;;;;;;;12.13;10.93;;;;;;;29.97;44.84;94491.25;5122371;27;20183;-70
2023/08/04 09:47:51;;;;;;;11.85;10.85;;;;;;;30.13;44.65;94495.59;5121916;27;20493;-70
2023/08/04 09:50:19;;;;;;;11.77;10.65;;;;;;;30.14;46.05;94482.94;5121911;27;20199;-70
2023/08/04 09:53:02;;;;;;;11.23;10.32;;;;;;;30.13;45.27;94493.53;5121425;28;20204;-70
2023/08/04 09:55:29;;;;;;;11.55;10.55;;;;;;;30.08;45.11;94482.09;5121373;28;20202;-70
2023/08/04 09:57:59;;;;;;;12.00;11.10;;;;;;;29.82;45.23;94482.75;5122064;28;20203;-70
2023/08/04 10:00:28;;;;;;;13.20;11.85;;;;;;;29.84;44.95;94482.25;5122098;27;20195;-70
2023/08/04 10:02:59;;;;;;;11.55;10.65;;;;;;;29.87;45.30;94473.53;5122217;27;20176;-69
2023/08/04 10:05:29;;;;;;;12.93;11.73;;;;;;;29.94;44.89;94483.72;5121178;28;20202;-69
2023/08/04 10:08:05;;;;;;;12.63;11.63;;;;;;;30.09;44.51;94475.13;5121940;27;20253;-69
2023/08/04 10:10:33;;;;;;;12.55;11.65;;;;;;;30.14;44.56;94469.53;5121763;27;20214;-69
2023/08/04 10:13:04;;;;;;;11.98;11.05;;;;;;;30.20;44.77;94472.47;5122036;27;20215;-70
2023/08/04 10:15:31;;;;;;;12.35;11.45;;;;;;;30.55;44.58;94475.25;5121114;28;20238;-70
2023/08/04 10:18:02;;;;;;;11.70;10.77;;;;;;;30.66;43.88;94466.84;5121224;28;20183;-70
2023/08/04 10:20:37;;;;;;;11.88;10.80;;;;;;;30.77;43.66;94466.25;5122232;27;20270;-69
2023/08/04 10:23:07;;;;;;;11.88;10.98;;;;;;;31.02;42.32;94459.00;5121044;28;20194;-69
2023/08/04 10:25:35;;;;;;;11.93;10.85;;;;;;;31.23;42.38;94462.59;5120465;28;20239;-69
2023/08/04 10:28:05;;;;;;;11.13;10.13;;;;;;;30.93;41.80;94459.16;5122040;27;20196;-69
2023/08/04 10:30:41;;;;;;;12.40;10.32;;;;;;;30.87;40.81;94461.19;5120925;28;20216;-69
2023/08/04 10:33:15;;;;;;;11.68;10.68;;;;;;;31.20;40.88;94454.25;5120959;28;20222;-69
2023/08/04 10:36:16;;;;;;;12.27;11.18;;;;;;;31.44;40.55;94466.16;5120894;28;20271;-69
2023/08/04 10:38:54;;;;;;;10.93;10.10;;;;;;;31.59;39.71;94455.41;5121321;28;20196;-69
2023/08/04 10:41:22;;;;;;;11.35;10.45;;;;;;;31.24;40.19;94457.66;5120919;27;20215;-69
2023/08/04 10:44:03;;;;;;;11.55;10.48;;;;;;;30.90;40.64;94454.47;5117260;28;20199;-70
2023/08/04 10:46:37;;;;;;;10.98;10.07;;;;;;;31.17;40.86;94456.03;5118565;28;20194;-69
2023/08/04 10:49:05;;;;;;;11.63;10.73;;;;;;;31.62;39.79;94450.75;5117517;28;20573;-69
2023/08/04 10:51:33;;;;;;;12.18;11.13;;;;;;;31.81;39.75;94442.59;5117498;28;20221;-70
2023/08/04 10:54:07;;;;;;;12.05;11.07;;;;;;;31.90;38.50;94438.81;5118582;28;20278;-69
2023/08/04 10:56:45;;;;;;;11.45;10.48;;;;;;;31.87;38.50;94432.03;5118499;28;20184;-70
2023/08/04 10:59:13;;;;;;;11.60;10.70;;;;;;;31.85;37.37;94435.38;5118041;28;20175;-69
2023/08/04 11:01:43;;;;;;;11.20;10.30;;;;;;;31.54;38.86;94439.03;5117938;28;20201;-69
2023/08/04 11:04:13;;;;;;;11.13;10.23;;;;;;;31.13;39.61;94439.19;5118702;28;20245;-70
2023/08/04 11:06:41;;;;;;;11.15;10.25;;;;;;;31.23;39.15;94433.28;5117914;28;20195;-70
2023/08/04 11:09:12;;;;;;;11.10;10.30;;;;;;;31.35;38.44;94437.84;5117370;28;20199;-70
2023/08/04 11:11:41;;;;;;;11.43;10.52;;;;;;;31.49;39.09;94433.31;5117819;28;20191;-70
2023/08/04 11:14:10;;;;;;;11.50;10.60;;;;;;;31.81;39.37;94423.44;5117553;28;20203;-69
2023/08/04 11:16:40;;;;;;;10.85;10.05;;;;;;;31.80;38.43;94429.63;5116783;28;20200;-70
2023/08/04 11:19:09;;;;;;;11.60;10.60;;;;;;;31.56;37.82;94427.91;5116762;28;20209;-70
2023/08/04 11:21:36;;;;;;;10.50;9.70;;;;;;;31.52;37.96;94426.56;5116985;28;20199;-70
2023/08/04 11:24:05;;;;;;;10.45;9.57;;;;;;;31.16;38.79;94428.84;5117944;28;20202;-70
2023/08/04 11:26:40;;;;;;;10.75;9.85;;;;;;;30.80;38.07;94430.31;5117741;28;20231;-70
2023/08/04 11:29:11;;;;;;;11.55;10.65;;;;;;;30.90;38.90;94431.69;5117097;28;20207;-70